ローマ/フィウミチーノ の空港の天気 - METARとTAF

ローマ・レオナルド・ダ・ビンチ国際空港 ( LIRF / FCO ) - イタリア ローマ
飛行場実況気象(Metar)
観測時間04/21 18:50 CEST (04/21 16:50 UTC)
風向・風速北北東 2m/s
視程10km以上
天気現象
なし
気温18℃
湿度60%
気圧1014hPa
METARLIRF 211650Z 03003KT CAVOK 18/10 Q1014 NOSIG
過去の天気等 Google飛行場航空写真 Wunderground天気予報

過去48時間のMETAR

飛行場予報(TAF)
発表時間: 4/21 13:00 CEST (4/21 11:00 UTC)
予報対象時間: 21日14時 CEST ~ 22日20時 CEST
風向・風速南南東 7m/s
視程10km以上
少しの雲 雲底高度 1220m
22日2時 CEST ~ 22日4時 CEST に徐々に
風向・風速南南東 8m/s 瞬間風速 13m/s
22日15時 CEST ~ 22日20時 CEST に一時的に
天気現象しゅう雨
TAF LIRF 211100Z 2112/2218 15014KT 9999 FEW040
BECMG 2200/2202 15015G25KT
TEMPO 2213/2218 SHRA